Aérodrome :
LOGIN :

S'inscrire | Disclaimer

   EN    FR    IT 

 










Légende :    VFR   VFR Marginal   IFR   IFR Intensif   IFR Très Intensif
Visi : 
Plafond : 
>= 8 km
>= 3000ft
5 à 8 km
1000 à 3000 ft
1500m à 5 km
500 à 1000 ft
800 à 1500m
200 à 500 ft
< 800m
< 200 ft
Symboles :   Orages  Brouillard  Fortes neiges  Fortes précipitations  Vent > 20 kt
SIGMETs :   Divers  Orages  Givrage  Turbulence  Onde Orograph.  Cendres Volcan.






- Altitude de l'aérodrome : 364 ft


LFAQ - Albert Bray

DERNIER METAR :
  • 170400Z AUTO 20004KT 9999 FEW008 SCT016 BKN052 14/13 Q1010

METARs EXPIRÉS :
  • 170330Z AUTO 22003KT 9999 OVC009 14/13 Q1009
  • 170300Z AUTO 18003KT 9999 SCT012 BKN020 BKN029 14/13 Q1009
  • 170230Z AUTO 17004KT 9999 FEW036 BKN070 OVC090 14/13 Q1009
  • 170200Z AUTO 18004KT 9999 FEW041 SCT054 OVC066 14/13 Q1009
  • 170130Z AUTO 21004KT 9999 BKN044 OVC064 14/13 Q1009
  • 170100Z AUTO 18004KT 9999 FEW028 OVC066 14/14 Q1009
  • 170030Z AUTO 18003KT 9999 -RADZ FEW028 SCT033 BKN049 14/13 Q1009
  • 170000Z AUTO 18004KT 9999 FEW028 OVC054 14/13 Q1009
  • 162330Z AUTO 00000KT 9999 FEW029 SCT042 BKN056 14/13 Q1009

Prévision TAF périmée.



MET'MAP, la Météo Aéronautique d'un coup d'oeil ! - Copyright ORBIFLY Décembre 2007 - Disclaimer

ORBIFLY MET'MAP TEAM :

Programmation & Développement : Alexandra Zaïnal
Sur une idée originale de : Baudouin d'Aumeries
Soutien technique & logistique : Manuel Goepfert
Assistance : Marc-Olivier Méhu




SOURCES & CREDITS :

   NOAA